sensor_id;sensor_type;location;lat;lon;timestamp;temperature;humidity
12166;DHT22;6146;48.128;11.476;2022-09-09T00:00:18;16.20;99.90
12166;DHT22;6146;48.128;11.476;2022-09-09T00:03:00;16.20;99.90
12166;DHT22;6146;48.128;11.476;2022-09-09T00:05:45;16.10;99.90
12166;DHT22;6146;48.128;11.476;2022-09-09T00:11:05;16.20;99.90
12166;DHT22;6146;48.128;11.476;2022-09-09T00:13:46;16.10;99.90
12166;DHT22;6146;48.128;11.476;2022-09-09T00:16:19;16.10;99.90
12166;DHT22;6146;48.128;11.476;2022-09-09T00:19:07;16.10;99.90
12166;DHT22;6146;48.128;11.476;2022-09-09T00:21:53;16.10;99.90
12166;DHT22;6146;48.128;11.476;2022-09-09T00:24:43;16.00;99.90
12166;DHT22;6146;48.128;11.476;2022-09-09T00:27:18;16.00;99.90
12166;DHT22;6146;48.128;11.476;2022-09-09T00:32:39;16.00;99.90
12166;DHT22;6146;48.128;11.476;2022-09-09T00:35:30;16.00;99.90
12166;DHT22;6146;48.128;11.476;2022-09-09T00:38:00;16.10;99.90
12166;DHT22;6146;48.128;11.476;2022-09-09T00:40:35;16.10;99.90
12166;DHT22;6146;48.128;11.476;2022-09-09T00:52:28;16.00;99.90
12166;DHT22;6146;48.128;11.476;2022-09-09T00:54:23;16.00;99.90
12166;DHT22;6146;48.128;11.476;2022-09-09T00:57:01;16.10;99.90
12166;DHT22;6146;48.128;11.476;2022-09-09T00:59:46;16.00;99.90
12166;DHT22;6146;48.128;11.476;2022-09-09T01:02:36;15.90;99.90
12166;DHT22;6146;48.128;11.476;2022-09-09T01:08:14;15.90;99.90
12166;DHT22;6146;48.128;11.476;2022-09-09T01:10:50;15.80;99.90
12166;DHT22;6146;48.128;11.476;2022-09-09T01:13:27;15.70;99.90
12166;DHT22;6146;48.128;11.476;2022-09-09T01:15:57;15.80;99.90
12166;DHT22;6146;48.128;11.476;2022-09-09T01:18:27;15.80;99.90
12166;DHT22;6146;48.128;11.476;2022-09-09T01:23:35;15.80;99.90
12166;DHT22;6146;48.128;11.476;2022-09-09T01:26:24;15.80;99.90
12166;DHT22;6146;48.128;11.476;2022-09-09T01:28:52;15.90;99.90
12166;DHT22;6146;48.128;11.476;2022-09-09T01:31:31;15.90;99.90
12166;DHT22;6146;48.128;11.476;2022-09-09T01:33:57;15.90;99.90
12166;DHT22;6146;48.128;11.476;2022-09-09T01:36:34;15.90;99.90
12166;DHT22;6146;48.128;11.476;2022-09-09T01:39:01;15.90;99.90
12166;DHT22;6146;48.128;11.476;2022-09-09T01:41:27;15.80;99.90
12166;DHT22;6146;48.128;11.476;2022-09-09T01:43:54;15.80;99.90
12166;DHT22;6146;48.128;11.476;2022-09-09T01:46:22;15.80;99.90
12166;DHT22;6146;48.128;11.476;2022-09-09T01:48:49;15.80;99.90
12166;DHT22;6146;48.128;11.476;2022-09-09T01:51:16;15.80;99.90
12166;DHT22;6146;48.128;11.476;2022-09-09T01:53:42;15.80;99.90
12166;DHT22;6146;48.128;11.476;2022-09-09T01:59:04;15.70;99.90
12166;DHT22;6146;48.128;11.476;2022-09-09T02:01:45;15.60;99.90
12166;DHT22;6146;48.128;11.476;2022-09-09T02:06:56;15.60;99.90
12166;DHT22;6146;48.128;11.476;2022-09-09T02:09:24;15.70;99.90
12166;DHT22;6146;48.128;11.476;2022-09-09T02:12:11;15.60;99.90
12166;DHT22;6146;48.128;11.476;2022-09-09T02:14:42;15.60;99.90
12166;DHT22;6146;48.128;11.476;2022-09-09T02:17:11;15.50;99.90
12166;DHT22;6146;48.128;11.476;2022-09-09T02:19:52;15.50;99.90
12166;DHT22;6146;48.128;11.476;2022-09-09T02:22:20;15.50;99.90
12166;DHT22;6146;48.128;11.476;2022-09-09T02:24:49;15.50;99.90
12166;DHT22;6146;48.128;11.476;2022-09-09T02:27:18;15.50;99.90
12166;DHT22;6146;48.128;11.476;2022-09-09T02:29:44;15.50;99.90
12166;DHT22;6146;48.128;11.476;2022-09-09T02:32:15;15.50;99.90
12166;DHT22;6146;48.128;11.476;2022-09-09T02:34:48;15.50;99.90
12166;DHT22;6146;48.128;11.476;2022-09-09T02:37:18;15.40;99.90
12166;DHT22;6146;48.128;11.476;2022-09-09T02:39:44;15.50;99.90
12166;DHT22;6146;48.128;11.476;2022-09-09T02:42:10;15.40;99.90
12166;DHT22;6146;48.128;11.476;2022-09-09T02:44:35;15.50;99.90
12166;DHT22;6146;48.128;11.476;2022-09-09T02:55:47;15.40;99.90
12166;DHT22;6146;48.128;11.476;2022-09-09T02:58:16;15.30;99.90
12166;DHT22;6146;48.128;11.476;2022-09-09T03:00:44;15.30;99.90
12166;DHT22;6146;48.128;11.476;2022-09-09T03:03:10;15.30;99.90
12166;DHT22;6146;48.128;11.476;2022-09-09T03:05:36;15.30;99.90
12166;DHT22;6146;48.128;11.476;2022-09-09T03:08:03;15.30;99.90
12166;DHT22;6146;48.128;11.476;2022-09-09T03:10:29;15.30;99.90
12166;DHT22;6146;48.128;11.476;2022-09-09T03:12:54;15.30;99.90
12166;DHT22;6146;48.128;11.476;2022-09-09T03:15:20;15.30;99.90
12166;DHT22;6146;48.128;11.476;2022-09-09T03:17:46;15.30;99.90
12166;DHT22;6146;48.128;11.476;2022-09-09T03:20:12;15.30;99.90
12166;DHT22;6146;48.128;11.476;2022-09-09T03:22:38;15.20;99.90
12166;DHT22;6146;48.128;11.476;2022-09-09T03:25:04;15.20;99.90
12166;DHT22;6146;48.128;11.476;2022-09-09T03:27:31;15.20;99.90
12166;DHT22;6146;48.128;11.476;2022-09-09T03:29:56;15.20;99.90
12166;DHT22;6146;48.128;11.476;2022-09-09T03:32:23;15.10;99.90
12166;DHT22;6146;48.128;11.476;2022-09-09T03:34:51;15.10;99.90
12166;DHT22;6146;48.128;11.476;2022-09-09T03:37:18;15.00;99.90
12166;DHT22;6146;48.128;11.476;2022-09-09T03:39:44;15.10;99.90
12166;DHT22;6146;48.128;11.476;2022-09-09T03:42:12;15.10;99.90
12166;DHT22;6146;48.128;11.476;2022-09-09T03:44:39;15.00;99.90
12166;DHT22;6146;48.128;11.476;2022-09-09T03:47:05;15.00;99.90
12166;DHT22;6146;48.128;11.476;2022-09-09T03:49:31;15.00;99.90
12166;DHT22;6146;48.128;11.476;2022-09-09T03:51:57;15.00;99.90
12166;DHT22;6146;48.128;11.476;2022-09-09T03:54:24;15.00;99.90
12166;DHT22;6146;48.128;11.476;2022-09-09T03:56:50;15.00;99.90
12166;DHT22;6146;48.128;11.476;2022-09-09T03:59:15;15.00;99.90
12166;DHT22;6146;48.128;11.476;2022-09-09T04:01:41;15.00;99.90
12166;DHT22;6146;48.128;11.476;2022-09-09T04:04:07;15.10;99.90
12166;DHT22;6146;48.128;11.476;2022-09-09T04:06:33;15.10;99.90
12166;DHT22;6146;48.128;11.476;2022-09-09T04:08:58;15.10;99.90
12166;DHT22;6146;48.128;11.476;2022-09-09T04:11:24;15.20;99.90
12166;DHT22;6146;48.128;11.476;2022-09-09T04:13:49;15.20;99.90
12166;DHT22;6146;48.128;11.476;2022-09-09T04:16:15;15.20;99.90
12166;DHT22;6146;48.128;11.476;2022-09-09T04:18:41;15.30;99.90
12166;DHT22;6146;48.128;11.476;2022-09-09T04:21:08;15.30;99.90
12166;DHT22;6146;48.128;11.476;2022-09-09T04:23:35;15.30;99.90
12166;DHT22;6146;48.128;11.476;2022-09-09T04:26:03;15.30;99.90
12166;DHT22;6146;48.128;11.476;2022-09-09T04:28:31;15.30;99.90
12166;DHT22;6146;48.128;11.476;2022-09-09T04:31:03;15.30;99.90
12166;DHT22;6146;48.128;11.476;2022-09-09T04:33:29;15.30;99.90
12166;DHT22;6146;48.128;11.476;2022-09-09T04:35:57;15.30;99.90
12166;DHT22;6146;48.128;11.476;2022-09-09T04:38:22;15.30;99.90
12166;DHT22;6146;48.128;11.476;2022-09-09T04:40:49;15.20;99.90
12166;DHT22;6146;48.128;11.476;2022-09-09T04:43:15;15.20;99.90
12166;DHT22;6146;48.128;11.476;2022-09-09T04:45:42;15.20;99.90
12166;DHT22;6146;48.128;11.476;2022-09-09T04:48:08;15.20;99.90
12166;DHT22;6146;48.128;11.476;2022-09-09T04:50:35;15.20;99.90
12166;DHT22;6146;48.128;11.476;2022-09-09T04:53:04;15.10;99.90
12166;DHT22;6146;48.128;11.476;2022-09-09T04:55:31;15.10;99.90
12166;DHT22;6146;48.128;11.476;2022-09-09T04:57:57;15.20;99.90
12166;DHT22;6146;48.128;11.476;2022-09-09T05:00:25;15.20;99.90
12166;DHT22;6146;48.128;11.476;2022-09-09T05:02:51;15.20;99.90
12166;DHT22;6146;48.128;11.476;2022-09-09T05:05:16;15.30;99.90
12166;DHT22;6146;48.128;11.476;2022-09-09T05:07:43;15.30;99.90
12166;DHT22;6146;48.128;11.476;2022-09-09T05:10:09;15.30;99.90
12166;DHT22;6146;48.128;11.476;2022-09-09T05:12:36;15.20;99.90
12166;DHT22;6146;48.128;11.476;2022-09-09T05:15:01;15.20;99.90
12166;DHT22;6146;48.128;11.476;2022-09-09T05:17:27;15.10;99.90
12166;DHT22;6146;48.128;11.476;2022-09-09T05:19:53;15.10;99.90
12166;DHT22;6146;48.128;11.476;2022-09-09T05:22:21;15.00;99.90
12166;DHT22;6146;48.128;11.476;2022-09-09T05:24:49;15.00;99.90
12166;DHT22;6146;48.128;11.476;2022-09-09T05:27:17;15.00;99.90
12166;DHT22;6146;48.128;11.476;2022-09-09T05:29:43;15.20;99.90
12166;DHT22;6146;48.128;11.476;2022-09-09T05:32:09;15.10;99.90
12166;DHT22;6146;48.128;11.476;2022-09-09T05:34:35;15.20;99.90
12166;DHT22;6146;48.128;11.476;2022-09-09T05:37:02;15.30;99.90
12166;DHT22;6146;48.128;11.476;2022-09-09T05:39:28;15.40;99.90
12166;DHT22;6146;48.128;11.476;2022-09-09T05:41:54;15.50;99.90
12166;DHT22;6146;48.128;11.476;2022-09-09T05:44:20;15.50;99.90
12166;DHT22;6146;48.128;11.476;2022-09-09T05:46:48;15.50;99.90
12166;DHT22;6146;48.128;11.476;2022-09-09T05:49:14;15.50;99.90
12166;DHT22;6146;48.128;11.476;2022-09-09T05:51:40;15.50;99.90
12166;DHT22;6146;48.128;11.476;2022-09-09T05:54:08;15.60;99.90
12166;DHT22;6146;48.128;11.476;2022-09-09T05:56:34;15.60;99.90
12166;DHT22;6146;48.128;11.476;2022-09-09T05:58:59;15.70;99.90
12166;DHT22;6146;48.128;11.476;2022-09-09T06:01:31;15.70;99.90
12166;DHT22;6146;48.128;11.476;2022-09-09T06:03:57;15.80;99.90
12166;DHT22;6146;48.128;11.476;2022-09-09T06:06:29;15.80;99.90
12166;DHT22;6146;48.128;11.476;2022-09-09T06:08:56;15.90;99.90
12166;DHT22;6146;48.128;11.476;2022-09-09T06:11:27;16.00;99.90
12166;DHT22;6146;48.128;11.476;2022-09-09T06:13:52;16.00;99.90
12166;DHT22;6146;48.128;11.476;2022-09-09T06:16:21;16.10;99.90
12166;DHT22;6146;48.128;11.476;2022-09-09T06:18:51;16.10;99.90
12166;DHT22;6146;48.128;11.476;2022-09-09T06:21:19;16.20;99.90
12166;DHT22;6146;48.128;11.476;2022-09-09T06:23:45;16.20;99.90
12166;DHT22;6146;48.128;11.476;2022-09-09T06:26:17;16.10;99.90
12166;DHT22;6146;48.128;11.476;2022-09-09T06:28:47;16.20;99.90
12166;DHT22;6146;48.128;11.476;2022-09-09T06:31:15;16.20;99.90
12166;DHT22;6146;48.128;11.476;2022-09-09T06:33:43;16.20;99.90
12166;DHT22;6146;48.128;11.476;2022-09-09T06:36:14;16.20;99.90
12166;DHT22;6146;48.128;11.476;2022-09-09T06:38:43;16.20;99.90
12166;DHT22;6146;48.128;11.476;2022-09-09T06:41:10;16.20;99.90
12166;DHT22;6146;48.128;11.476;2022-09-09T06:43:36;16.30;99.90
12166;DHT22;6146;48.128;11.476;2022-09-09T06:46:05;16.40;99.90
12166;DHT22;6146;48.128;11.476;2022-09-09T06:48:31;16.40;99.90
12166;DHT22;6146;48.128;11.476;2022-09-09T06:51:06;16.50;99.90
12166;DHT22;6146;48.128;11.476;2022-09-09T06:53:33;16.60;99.90
12166;DHT22;6146;48.128;11.476;2022-09-09T06:58:49;16.80;99.90
12166;DHT22;6146;48.128;11.476;2022-09-09T07:01:17;16.80;99.90
12166;DHT22;6146;48.128;11.476;2022-09-09T07:03:47;16.80;99.90
12166;DHT22;6146;48.128;11.476;2022-09-09T07:06:15;16.90;99.90
12166;DHT22;6146;48.128;11.476;2022-09-09T07:08:43;16.90;99.90
12166;DHT22;6146;48.128;11.476;2022-09-09T07:11:08;17.00;99.90
12166;DHT22;6146;48.128;11.476;2022-09-09T07:13:35;16.80;99.90
12166;DHT22;6146;48.128;11.476;2022-09-09T07:16:12;16.80;99.90
12166;DHT22;6146;48.128;11.476;2022-09-09T07:18:39;16.70;99.90
12166;DHT22;6146;48.128;11.476;2022-09-09T07:21:05;16.70;99.90
12166;DHT22;6146;48.128;11.476;2022-09-09T07:23:32;16.80;99.90
12166;DHT22;6146;48.128;11.476;2022-09-09T07:25:57;16.90;99.90
12166;DHT22;6146;48.128;11.476;2022-09-09T07:28:24;17.00;99.90
12166;DHT22;6146;48.128;11.476;2022-09-09T07:30:56;17.20;99.90
12166;DHT22;6146;48.128;11.476;2022-09-09T07:33:23;17.40;99.90
12166;DHT22;6146;48.128;11.476;2022-09-09T07:35:49;17.70;99.90
12166;DHT22;6146;48.128;11.476;2022-09-09T07:38:15;18.10;99.90
12166;DHT22;6146;48.128;11.476;2022-09-09T07:40:41;18.40;99.90
12166;DHT22;6146;48.128;11.476;2022-09-09T07:43:07;18.80;99.90
12166;DHT22;6146;48.128;11.476;2022-09-09T07:45:33;18.90;99.90
12166;DHT22;6146;48.128;11.476;2022-09-09T07:48:00;19.10;99.90
12166;DHT22;6146;48.128;11.476;2022-09-09T07:50:25;19.10;99.90
12166;DHT22;6146;48.128;11.476;2022-09-09T07:52:52;19.10;99.90
12166;DHT22;6146;48.128;11.476;2022-09-09T07:55:19;19.00;99.90
12166;DHT22;6146;48.128;11.476;2022-09-09T07:57:45;18.90;99.90
12166;DHT22;6146;48.128;11.476;2022-09-09T08:00:11;18.90;99.90
12166;DHT22;6146;48.128;11.476;2022-09-09T08:02:37;19.00;99.90
12166;DHT22;6146;48.128;11.476;2022-09-09T08:05:02;19.00;99.90
12166;DHT22;6146;48.128;11.476;2022-09-09T08:07:28;19.10;99.90
12166;DHT22;6146;48.128;11.476;2022-09-09T08:09:54;19.10;99.90
12166;DHT22;6146;48.128;11.476;2022-09-09T08:12:21;19.30;99.90
12166;DHT22;6146;48.128;11.476;2022-09-09T08:14:47;19.50;99.90
12166;DHT22;6146;48.128;11.476;2022-09-09T08:17:14;19.50;99.90
12166;DHT22;6146;48.128;11.476;2022-09-09T08:19:39;19.50;99.90
12166;DHT22;6146;48.128;11.476;2022-09-09T08:22:05;19.50;99.90
12166;DHT22;6146;48.128;11.476;2022-09-09T08:24:30;19.50;99.90
12166;DHT22;6146;48.128;11.476;2022-09-09T08:26:56;19.70;99.90
12166;DHT22;6146;48.128;11.476;2022-09-09T08:29:22;19.90;99.90
12166;DHT22;6146;48.128;11.476;2022-09-09T08:31:53;20.10;99.90
12166;DHT22;6146;48.128;11.476;2022-09-09T08:34:20;20.10;99.90
12166;DHT22;6146;48.128;11.476;2022-09-09T08:36:47;19.80;99.90
12166;DHT22;6146;48.128;11.476;2022-09-09T08:39:18;19.40;99.90
12166;DHT22;6146;48.128;11.476;2022-09-09T08:57:38;18.90;99.90
12166;DHT22;6146;48.128;11.476;2022-09-09T09:00:04;18.90;99.90
12166;DHT22;6146;48.128;11.476;2022-09-09T09:02:42;19.00;99.90
12166;DHT22;6146;48.128;11.476;2022-09-09T09:05:53;19.40;99.90
12166;DHT22;6146;48.128;11.476;2022-09-09T09:11:39;20.90;99.90
12166;DHT22;6146;48.128;11.476;2022-09-09T09:14:09;21.40;99.90
12166;DHT22;6146;48.128;11.476;2022-09-09T09:19:12;21.50;99.90
12166;DHT22;6146;48.128;11.476;2022-09-09T09:21:45;21.30;99.90
12166;DHT22;6146;48.128;11.476;2022-09-09T09:24:22;20.90;99.90
12166;DHT22;6146;48.128;11.476;2022-09-09T09:26:50;20.80;99.90
12166;DHT22;6146;48.128;11.476;2022-09-09T09:29:17;20.90;99.90
12166;DHT22;6146;48.128;11.476;2022-09-09T09:31:55;21.00;99.90
12166;DHT22;6146;48.128;11.476;2022-09-09T09:34:23;21.20;99.90
12166;DHT22;6146;48.128;11.476;2022-09-09T09:36:55;21.10;99.90
12166;DHT22;6146;48.128;11.476;2022-09-09T09:39:32;21.00;99.90
12166;DHT22;6146;48.128;11.476;2022-09-09T09:42:13;20.90;99.90
12166;DHT22;6146;48.128;11.476;2022-09-09T09:44:40;20.80;99.90
12166;DHT22;6146;48.128;11.476;2022-09-09T09:47:23;20.70;99.90
12166;DHT22;6146;48.128;11.476;2022-09-09T09:49:52;20.50;99.90
12166;DHT22;6146;48.128;11.476;2022-09-09T09:52:25;20.30;99.90
12166;DHT22;6146;48.128;11.476;2022-09-09T09:54:52;20.30;99.90
12166;DHT22;6146;48.128;11.476;2022-09-09T09:57:27;20.20;99.90
12166;DHT22;6146;48.128;11.476;2022-09-09T10:00:22;20.00;99.90
12166;DHT22;6146;48.128;11.476;2022-09-09T10:02:49;19.60;99.90
12166;DHT22;6146;48.128;11.476;2022-09-09T10:05:22;19.30;99.90
12166;DHT22;6146;48.128;11.476;2022-09-09T10:13:32;18.70;99.90
12166;DHT22;6146;48.128;11.476;2022-09-09T10:18:59;18.60;99.90
12166;DHT22;6146;48.128;11.476;2022-09-09T10:27:27;18.60;99.90
12166;DHT22;6146;48.128;11.476;2022-09-09T10:30:18;18.60;99.90
12166;DHT22;6146;48.128;11.476;2022-09-09T10:32:56;18.70;99.90
12166;DHT22;6146;48.128;11.476;2022-09-09T10:35:45;18.70;99.90
12166;DHT22;6146;48.128;11.476;2022-09-09T10:38:15;18.90;99.90
12166;DHT22;6146;48.128;11.476;2022-09-09T10:54:55;19.70;99.90
12166;DHT22;6146;48.128;11.476;2022-09-09T10:57:36;19.70;99.90
12166;DHT22;6146;48.128;11.476;2022-09-09T11:00:15;20.00;99.90
12166;DHT22;6146;48.128;11.476;2022-09-09T11:02:42;20.50;99.90
12166;DHT22;6146;48.128;11.476;2022-09-09T11:05:24;20.90;99.90
12166;DHT22;6146;48.128;11.476;2022-09-09T11:07:59;21.30;99.90
12166;DHT22;6146;48.128;11.476;2022-09-09T11:10:39;22.20;99.90
12166;DHT22;6146;48.128;11.476;2022-09-09T11:13:46;22.70;99.90
12166;DHT22;6146;48.128;11.476;2022-09-09T11:19:04;23.60;99.90
12166;DHT22;6146;48.128;11.476;2022-09-09T11:21:40;23.50;99.90
12166;DHT22;6146;48.128;11.476;2022-09-09T11:27:24;24.50;99.90
12166;DHT22;6146;48.128;11.476;2022-09-09T11:30:15;24.40;99.90
12166;DHT22;6146;48.128;11.476;2022-09-09T11:33:07;24.10;99.90
12166;DHT22;6146;48.128;11.476;2022-09-09T11:35:46;24.00;99.90
12166;DHT22;6146;48.128;11.476;2022-09-09T11:38:18;23.90;99.90
12166;DHT22;6146;48.128;11.476;2022-09-09T11:40:45;24.00;99.90
12166;DHT22;6146;48.128;11.476;2022-09-09T11:43:24;23.10;99.90
12166;DHT22;6146;48.128;11.476;2022-09-09T11:45:54;22.40;99.90
12166;DHT22;6146;48.128;11.476;2022-09-09T11:48:28;22.20;99.90
12166;DHT22;6146;48.128;11.476;2022-09-09T11:51:09;21.90;99.90
12166;DHT22;6146;48.128;11.476;2022-09-09T11:53:54;21.20;99.90
12166;DHT22;6146;48.128;11.476;2022-09-09T11:56:34;21.00;99.90
12166;DHT22;6146;48.128;11.476;2022-09-09T11:59:21;21.00;99.90
12166;DHT22;6146;48.128;11.476;2022-09-09T12:02:02;21.00;99.90
12166;DHT22;6146;48.128;11.476;2022-09-09T12:04:30;21.00;99.90
12166;DHT22;6146;48.128;11.476;2022-09-09T12:09:48;20.80;99.90
12166;DHT22;6146;48.128;11.476;2022-09-09T12:12:35;21.00;99.90
12166;DHT22;6146;48.128;11.476;2022-09-09T12:15:15;21.60;99.90
12166;DHT22;6146;48.128;11.476;2022-09-09T12:17:48;22.60;99.90
12166;DHT22;6146;48.128;11.476;2022-09-09T12:20:23;23.10;99.90
12166;DHT22;6146;48.128;11.476;2022-09-09T12:23:12;23.30;99.90
12166;DHT22;6146;48.128;11.476;2022-09-09T12:28:18;22.70;99.90
12166;DHT22;6146;48.128;11.476;2022-09-09T12:33:34;22.30;99.90
12166;DHT22;6146;48.128;11.476;2022-09-09T12:36:00;22.30;99.90
12166;DHT22;6146;48.128;11.476;2022-09-09T12:38:38;22.40;99.90
12166;DHT22;6146;48.128;11.476;2022-09-09T12:41:04;22.40;99.90
12166;DHT22;6146;48.128;11.476;2022-09-09T12:43:30;22.10;99.90
12166;DHT22;6146;48.128;11.476;2022-09-09T12:46:07;21.90;99.90
12166;DHT22;6146;48.128;11.476;2022-09-09T12:48:38;21.90;99.90
12166;DHT22;6146;48.128;11.476;2022-09-09T12:51:16;22.20;99.90
12166;DHT22;6146;48.128;11.476;2022-09-09T12:53:44;22.40;99.90
12166;DHT22;6146;48.128;11.476;2022-09-09T12:56:23;22.60;99.90
12166;DHT22;6146;48.128;11.476;2022-09-09T12:58:53;22.60;99.90
12166;DHT22;6146;48.128;11.476;2022-09-09T13:01:24;22.20;99.90
12166;DHT22;6146;48.128;11.476;2022-09-09T13:03:50;22.20;99.90
12166;DHT22;6146;48.128;11.476;2022-09-09T13:06:21;22.30;99.90
12166;DHT22;6146;48.128;11.476;2022-09-09T13:08:48;22.20;99.90
12166;DHT22;6146;48.128;11.476;2022-09-09T13:11:20;22.40;99.90
12166;DHT22;6146;48.128;11.476;2022-09-09T13:13:53;22.10;99.90
12166;DHT22;6146;48.128;11.476;2022-09-09T13:16:30;22.20;99.90
12166;DHT22;6146;48.128;11.476;2022-09-09T13:18:57;22.20;99.90
12166;DHT22;6146;48.128;11.476;2022-09-09T13:21:37;22.50;99.90
12166;DHT22;6146;48.128;11.476;2022-09-09T13:24:23;22.50;99.90
12166;DHT22;6146;48.128;11.476;2022-09-09T13:29:52;22.80;99.90
12166;DHT22;6146;48.128;11.476;2022-09-09T13:32:23;22.60;99.90
12166;DHT22;6146;48.128;11.476;2022-09-09T13:34:58;22.10;99.90
12166;DHT22;6146;48.128;11.476;2022-09-09T13:37:44;22.00;99.90
12166;DHT22;6146;48.128;11.476;2022-09-09T13:40:18;21.90;99.90
12166;DHT22;6146;48.128;11.476;2022-09-09T13:42:45;21.90;99.90
12166;DHT22;6146;48.128;11.476;2022-09-09T13:45:22;21.50;99.90
12166;DHT22;6146;48.128;11.476;2022-09-09T13:47:49;21.20;99.90
12166;DHT22;6146;48.128;11.476;2022-09-09T13:50:28;21.10;99.90
12166;DHT22;6146;48.128;11.476;2022-09-09T13:55:30;20.90;99.90
12166;DHT22;6146;48.128;11.476;2022-09-09T14:00:21;20.80;99.90
12166;DHT22;6146;48.128;11.476;2022-09-09T14:02:48;20.70;99.90
12166;DHT22;6146;48.128;11.476;2022-09-09T14:05:14;20.70;99.90
12166;DHT22;6146;48.128;11.476;2022-09-09T14:07:41;20.50;99.90
12166;DHT22;6146;48.128;11.476;2022-09-09T14:10:08;20.40;99.90
12166;DHT22;6146;48.128;11.476;2022-09-09T14:12:34;20.40;99.90
12166;DHT22;6146;48.128;11.476;2022-09-09T14:15:00;20.30;99.90
12166;DHT22;6146;48.128;11.476;2022-09-09T14:17:26;20.20;99.90
12166;DHT22;6146;48.128;11.476;2022-09-09T14:19:54;20.10;99.90
12166;DHT22;6146;48.128;11.476;2022-09-09T14:22:21;20.20;99.90
12166;DHT22;6146;48.128;11.476;2022-09-09T14:24:46;20.30;99.90
12166;DHT22;6146;48.128;11.476;2022-09-09T14:27:12;20.20;99.90
12166;DHT22;6146;48.128;11.476;2022-09-09T14:29:38;20.30;99.90
12166;DHT22;6146;48.128;11.476;2022-09-09T14:32:03;20.20;99.90
12166;DHT22;6146;48.128;11.476;2022-09-09T14:34:29;20.10;99.90
12166;DHT22;6146;48.128;11.476;2022-09-09T14:36:58;20.00;99.90
12166;DHT22;6146;48.128;11.476;2022-09-09T14:39:23;19.80;99.90
12166;DHT22;6146;48.128;11.476;2022-09-09T14:41:49;19.80;99.90
12166;DHT22;6146;48.128;11.476;2022-09-09T14:44:14;19.80;99.90
12166;DHT22;6146;48.128;11.476;2022-09-09T14:46:41;19.60;99.90
12166;DHT22;6146;48.128;11.476;2022-09-09T14:49:08;19.30;99.90
12166;DHT22;6146;48.128;11.476;2022-09-09T14:51:36;19.20;99.90
12166;DHT22;6146;48.128;11.476;2022-09-09T14:54:02;19.20;99.90
12166;DHT22;6146;48.128;11.476;2022-09-09T14:56:30;19.40;99.90
12166;DHT22;6146;48.128;11.476;2022-09-09T14:58:57;19.30;99.90
12166;DHT22;6146;48.128;11.476;2022-09-09T15:01:24;19.30;99.90
12166;DHT22;6146;48.128;11.476;2022-09-09T15:03:56;19.30;99.90
12166;DHT22;6146;48.128;11.476;2022-09-09T15:06:24;19.40;99.90
12166;DHT22;6146;48.128;11.476;2022-09-09T15:08:51;19.40;99.90
12166;DHT22;6146;48.128;11.476;2022-09-09T15:11:18;19.40;99.90
12166;DHT22;6146;48.128;11.476;2022-09-09T15:13:44;19.30;99.90
12166;DHT22;6146;48.128;11.476;2022-09-09T15:16:15;19.30;99.90
12166;DHT22;6146;48.128;11.476;2022-09-09T15:18:41;19.30;99.90
12166;DHT22;6146;48.128;11.476;2022-09-09T15:21:17;19.40;99.90
12166;DHT22;6146;48.128;11.476;2022-09-09T15:23:44;19.40;99.90
12166;DHT22;6146;48.128;11.476;2022-09-09T15:26:11;19.20;99.90
12166;DHT22;6146;48.128;11.476;2022-09-09T15:28:41;19.10;99.90
12166;DHT22;6146;48.128;11.476;2022-09-09T15:31:13;19.10;99.90
12166;DHT22;6146;48.128;11.476;2022-09-09T15:34:10;19.20;99.90
12166;DHT22;6146;48.128;11.476;2022-09-09T15:36:38;19.30;99.90
12166;DHT22;6146;48.128;11.476;2022-09-09T15:39:07;19.40;99.90
12166;DHT22;6146;48.128;11.476;2022-09-09T15:41:35;19.50;99.90
12166;DHT22;6146;48.128;11.476;2022-09-09T15:44:01;19.50;99.90
12166;DHT22;6146;48.128;11.476;2022-09-09T15:49:18;19.80;99.90
12166;DHT22;6146;48.128;11.476;2022-09-09T15:51:47;19.80;99.90
12166;DHT22;6146;48.128;11.476;2022-09-09T15:54:15;19.70;99.90
12166;DHT22;6146;48.128;11.476;2022-09-09T15:56:46;19.60;99.90
12166;DHT22;6146;48.128;11.476;2022-09-09T15:59:14;19.50;99.90
12166;DHT22;6146;48.128;11.476;2022-09-09T16:01:40;19.40;99.90
12166;DHT22;6146;48.128;11.476;2022-09-09T16:04:05;19.30;99.90
12166;DHT22;6146;48.128;11.476;2022-09-09T16:06:31;19.20;99.90
12166;DHT22;6146;48.128;11.476;2022-09-09T16:08:58;19.00;99.90
12166;DHT22;6146;48.128;11.476;2022-09-09T16:11:29;18.80;99.90
12166;DHT22;6146;48.128;11.476;2022-09-09T16:13:56;19.00;99.90
12166;DHT22;6146;48.128;11.476;2022-09-09T16:16:25;18.90;99.90
12166;DHT22;6146;48.128;11.476;2022-09-09T16:18:53;19.20;99.90
12166;DHT22;6146;48.128;11.476;2022-09-09T16:21:24;19.40;99.90
12166;DHT22;6146;48.128;11.476;2022-09-09T16:23:51;19.30;99.90
12166;DHT22;6146;48.128;11.476;2022-09-09T16:26:19;19.40;99.90
12166;DHT22;6146;48.128;11.476;2022-09-09T16:28:44;19.40;99.90
12166;DHT22;6146;48.128;11.476;2022-09-09T16:31:17;19.40;99.90
12166;DHT22;6146;48.128;11.476;2022-09-09T16:33:43;19.40;99.90
12166;DHT22;6146;48.128;11.476;2022-09-09T16:36:11;19.30;99.90
12166;DHT22;6146;48.128;11.476;2022-09-09T16:38:37;19.30;99.90
12166;DHT22;6146;48.128;11.476;2022-09-09T16:41:05;19.20;99.90
12166;DHT22;6146;48.128;11.476;2022-09-09T16:43:32;19.00;99.90
12166;DHT22;6146;48.128;11.476;2022-09-09T16:45:58;18.90;99.90
12166;DHT22;6146;48.128;11.476;2022-09-09T16:48:31;18.80;99.90
12166;DHT22;6146;48.128;11.476;2022-09-09T16:51:06;18.70;99.90
12166;DHT22;6146;48.128;11.476;2022-09-09T16:53:33;18.60;99.90
12166;DHT22;6146;48.128;11.476;2022-09-09T16:56:07;18.60;99.90
12166;DHT22;6146;48.128;11.476;2022-09-09T16:58:34;18.40;99.90
12166;DHT22;6146;48.128;11.476;2022-09-09T17:01:00;18.40;99.90
12166;DHT22;6146;48.128;11.476;2022-09-09T17:03:27;18.30;99.90
12166;DHT22;6146;48.128;11.476;2022-09-09T17:05:52;18.20;99.90
12166;DHT22;6146;48.128;11.476;2022-09-09T17:08:18;18.10;99.90
12166;DHT22;6146;48.128;11.476;2022-09-09T17:10:43;18.00;99.90
12166;DHT22;6146;48.128;11.476;2022-09-09T17:13:09;18.00;99.90
12166;DHT22;6146;48.128;11.476;2022-09-09T17:15:42;17.90;99.90
12166;DHT22;6146;48.128;11.476;2022-09-09T17:18:12;17.80;99.90
12166;DHT22;6146;48.128;11.476;2022-09-09T17:20:39;17.70;99.90
12166;DHT22;6146;48.128;11.476;2022-09-09T17:23:06;17.60;99.90
12166;DHT22;6146;48.128;11.476;2022-09-09T17:25:31;17.50;99.90
12166;DHT22;6146;48.128;11.476;2022-09-09T17:27:58;17.40;99.90
12166;DHT22;6146;48.128;11.476;2022-09-09T17:30:23;17.30;99.90
12166;DHT22;6146;48.128;11.476;2022-09-09T17:32:49;17.30;99.90
12166;DHT22;6146;48.128;11.476;2022-09-09T17:35:15;17.20;99.90
12166;DHT22;6146;48.128;11.476;2022-09-09T17:37:40;17.10;99.90
12166;DHT22;6146;48.128;11.476;2022-09-09T17:40:07;17.10;99.90